ΕΜΥ, Εθνική Μετεωρολογική Υπηρεσία - Δελτία Καιρού, Προγνώσεις

ΑΕΡΟΝΑΥΤΙΛΙΑ

GREEK AIRPORTS CODES

LGEL 262150Z 00000KT 9999 SCT025 06/05 Q1007 RMK BKN080=

EUROPEAN AIRPORTS CODES

TAF LGEL 261700Z 2618/2718 VRB05KT 9999 SCT015 SCT030 BKN070 PROB40 TEMPO 2703/2709 5000 RA FEW012 FEW016TCU BKN020 BECMG 2711/2713 FEW018 SCT025=